Etusivu
METAR-TAF:

METAR-TAF

Lentoasemat :

Sfax, Tunisia

Leveyspiiri: 34-43N, Pituuspiiri: 010-41E, korkeus merenpinnasta: 21 m

Tämänhetkinen sää

Tämä raportti tehtiin 54 minuuttia sitten, kello 21.00 UTC
Tuuli 6 kn pohjoisesta
Lämpötila 27°C
Kosteus 45%
Ilmanpaine 1015 hPa
Näkyvyys 10 km tai enemmän
Muutamia pilviä 3300 ft:n korkeudessa

METAR: DTTX 222100Z 01006KT 9999 FEW033 27/14 Q1015

Aika: 22:54 (21:54 UTC)

Sääennuste

Tämä raportti tehtiin 4 tuntia ja 54 minuuttia sitten, kello 17.00 UTC
Ennuste voimassa 22. päivästä klo 18 UTC - 23. päivään klo 18 UTC
Tuuli 15 kn koillisesta
Näkyvyys 10 km tai enemmän
Muutamia pilviä 3300 ft:n korkeudessa
Tulossa
23. päivästä klo 10 UTC - 23. päivään klo 12 UTC
Tuuli 10 kn idästä

TAF: DTTX 221700Z 2218/2318 04015KT 9999 FEW033 BECMG 2310/2312 10010KT

Säähavainnot ja -ennusteet yli 4000 lentoasemalta (METAR- ja TAF-raportit).

Käytössä olevat sääasemat on merkitty karttaan keltaisilla ja punaisilla pisteillä.

Aseta hiiri pisteen päälle nähdäksesi sääaseman nimen.

Klikkaa sitten nähdäksesi säähavainnot ja -ennusteet.

Kartan vaihtaminen: klikkaa mustalla rastilla varustettuja vihreitä pisteitä, niin voit zoomata sisään; viivalla varustettua vihreää pistettä, niin voit zoomata ulos tai vihreitä nuolia, niin pääset viereisille kartoille.


METAR-TAF: